This is the latest recevied weather packets stored in our database for station/object SP9MUF-14. If no packets are shown the sender has not sent any weather packets the latest 10 day(s).
| Time | Temp. | Humidity | Pressure | Rain* | Wind** | Luminosity | Snow |
|---|---|---|---|---|---|---|---|
| 1777487303 | 5° C | 47% | 1029.2 hPa | 0 mm | - | 0 W/m² | - |
| 1777486998 | 5° C | 46% | 1029.2 hPa | 0 mm | - | 0 W/m² | - |
| 1777486695 | 5° C | 46% | 1029.1 hPa | 0 mm | - | 0 W/m² | - |
| 1777486390 | 5° C | 46% | 1029.1 hPa | 0 mm | - | 0 W/m² | - |
| 1777486091 | 5° C | 46% | 1029.1 hPa | 0 mm | - | 0 W/m² | - |
| 1777485478 | 5° C | 45% | 1029 hPa | 0 mm | - | 2 W/m² | - |
| 1777485174 | 5° C | 45% | 1029 hPa | 0 mm | - | 3 W/m² | - |
| 1777484871 | 5.56° C | 45% | 1028.8 hPa | 0 mm | - | 4 W/m² | - |
| 1777484566 | 5.56° C | 45% | 1028.6 hPa | 0 mm | - | 5 W/m² | - |
| 1777484262 | 5.56° C | 44% | 1028.4 hPa | 0 mm | - | 8 W/m² | - |
| 1777483350 | 6.67° C | 40% | 1028.2 hPa | 0 mm | - | 21 W/m² | - |
| 1777483047 | 6.67° C | 40% | 1028 hPa | 0 mm | - | 26 W/m² | - |
| 1777482138 | 7.78° C | 36% | 1027.7 hPa | 0 mm | - | 39 W/m² | - |
| 1777481834 | 7.78° C | 37% | 1027.6 hPa | 0 mm | - | 42 W/m² | - |
| 1777481222 | 8.89° C | 35% | 1027.5 hPa | 0 mm | - | 51 W/m² | - |
| 1777480918 | 8.89° C | 35% | 1027.4 hPa | 0 mm | - | 58 W/m² | - |
| 1777480614 | 8.89° C | 35% | 1027.3 hPa | 0 mm | - | 64 W/m² | - |
| 1777480310 | 8.89° C | 36% | 1027.4 hPa | 0 mm | - | 72 W/m² | - |
| 1777480006 | 8.89° C | 35% | 1027.2 hPa | 0 mm | - | 71 W/m² | - |
| 1777479702 | 8.89° C | 34% | 1027.3 hPa | 0 mm | - | 70 W/m² | - |
| 1777479098 | 7.78° C | 37% | 1027.4 hPa | 0 mm | - | 81 W/m² | - |
| 1777478487 | 7.78° C | 37% | 1027.4 hPa | 0 mm | - | 39 W/m² | - |
| 1777478182 | 7.78° C | 37% | 1027.3 hPa | 0 mm | - | 40 W/m² | - |
| 1777477879 | 7.78° C | 37% | 1027.2 hPa | 0 mm | - | 39 W/m² | - |
| 1777477574 | 7.78° C | 36% | 1027.1 hPa | 0 mm | - | 40 W/m² | - |
* Rain latest hour (hover to see other rain measurements)
** Current wind speed in m/s (hover to see current wind gust speed)